createdAt,value
2023-03-21T00:01:24.570Z,96.85
2023-03-21T00:03:51.732Z,97.10
2023-03-21T00:06:18.329Z,97.04
2023-03-21T00:08:44.814Z,96.97
2023-03-21T00:11:12.794Z,97.02
2023-03-21T00:13:42.468Z,96.67
2023-03-21T00:16:23.122Z,96.93
2023-03-21T00:18:53.647Z,96.55
2023-03-21T00:24:08.978Z,97.06
2023-03-21T00:26:35.873Z,96.50
2023-03-21T00:29:03.136Z,97.13
2023-03-21T00:31:29.702Z,96.40
2023-03-21T00:33:56.941Z,96.88
2023-03-21T00:36:26.151Z,96.91
2023-03-21T00:38:53.181Z,97.09
2023-03-21T00:41:35.118Z,97.13
2023-03-21T00:44:07.489Z,97.23
2023-03-21T00:46:44.088Z,96.90
2023-03-21T00:49:16.084Z,97.16
2023-03-21T00:51:43.676Z,97.05
2023-03-21T00:54:12.371Z,97.16
2023-03-21T00:56:40.373Z,97.34
2023-03-21T00:59:06.886Z,97.26
2023-03-21T01:01:33.534Z,97.35
2023-03-21T01:04:05.683Z,97.46
2023-03-21T01:06:39.309Z,96.79
2023-03-21T01:09:19.672Z,97.27
2023-03-21T01:11:46.423Z,97.12
2023-03-21T01:14:22.518Z,97.18
2023-03-21T01:16:52.127Z,96.90
2023-03-21T01:19:29.192Z,97.68
2023-03-21T01:21:59.861Z,97.29
2023-03-21T01:24:26.714Z,97.02
2023-03-21T01:26:53.267Z,97.44
2023-03-21T01:29:20.113Z,97.09
2023-03-21T01:31:46.833Z,97.71
2023-03-21T01:34:13.771Z,97.11
2023-03-21T01:36:41.092Z,97.61
2023-03-21T01:39:12.755Z,97.09
2023-03-21T01:41:44.050Z,96.90
2023-03-21T01:44:22.827Z,97.29
2023-03-21T01:47:11.549Z,97.32
2023-03-21T01:49:49.627Z,97.51
2023-03-21T01:52:37.922Z,97.25
2023-03-21T01:55:12.340Z,97.12
2023-03-21T01:58:04.710Z,97.50
2023-03-21T02:00:38.316Z,97.18
2023-03-21T02:03:29.490Z,97.25
2023-03-21T02:06:17.888Z,96.93
2023-03-21T02:08:48.739Z,97.77
2023-03-21T02:11:16.474Z,97.72
2023-03-21T02:13:44.707Z,97.64
2023-03-21T02:16:18.091Z,97.34
2023-03-21T02:18:54.150Z,97.35
2023-03-21T02:21:55.422Z,97.48
2023-03-21T02:24:54.532Z,97.42
2023-03-21T02:27:28.335Z,97.54
2023-03-21T02:29:58.858Z,97.66
2023-03-21T02:32:41.689Z,97.05
2023-03-21T02:35:29.447Z,97.42
2023-03-21T02:38:19.435Z,97.16
2023-03-21T02:41:18.415Z,97.50
2023-03-21T02:44:05.707Z,97.19
2023-03-21T02:46:44.117Z,97.78
2023-03-21T02:49:24.088Z,97.38
2023-03-21T02:51:51.689Z,97.40
2023-03-21T02:54:34.929Z,97.45
2023-03-21T02:57:06.598Z,96.96
2023-03-21T02:59:39.382Z,97.39
2023-03-21T03:02:15.893Z,97.07
2023-03-21T03:04:42.430Z,96.76
2023-03-21T03:07:21.738Z,97.27
2023-03-21T03:10:20.783Z,96.63
2023-03-21T03:12:59.538Z,97.07
2023-03-21T03:15:56.906Z,96.38
2023-03-21T03:19:03.664Z,96.85
2023-03-21T03:21:40.177Z,97.00
2023-03-21T03:24:10.507Z,96.59
2023-03-21T03:26:41.749Z,96.75
2023-03-21T03:29:12.372Z,96.50
2023-03-21T03:31:55.636Z,97.01
2023-03-21T03:34:27.538Z,96.85
2023-03-21T03:36:57.741Z,96.40
2023-03-21T03:39:33.125Z,96.53
2023-03-21T03:42:27.146Z,96.69
2023-03-21T03:45:01.626Z,96.74
2023-03-21T03:47:56.241Z,97.05
2023-03-21T03:50:38.216Z,96.54
2023-03-21T03:53:21.903Z,96.85
2023-03-21T03:55:52.217Z,96.16
2023-03-21T03:58:24.241Z,96.34
2023-03-21T04:00:56.031Z,96.25
2023-03-21T04:03:23.593Z,96.36
2023-03-21T04:05:51.196Z,96.66
2023-03-21T04:08:18.218Z,96.35
2023-03-21T04:10:49.877Z,96.91
2023-03-21T04:13:16.614Z,97.02
2023-03-21T04:16:00.337Z,96.39
2023-03-21T04:18:28.476Z,96.36
2023-03-21T04:20:55.352Z,96.42
2023-03-21T04:23:23.159Z,97.04
2023-03-21T04:25:56.667Z,96.72
2023-03-21T04:28:27.554Z,97.00
2023-03-21T04:31:26.038Z,96.54
2023-03-21T04:34:04.259Z,96.54
2023-03-21T04:36:33.313Z,96.49
2023-03-21T04:39:01.542Z,96.77
2023-03-21T04:41:29.316Z,96.11
2023-03-21T04:43:56.698Z,96.72
2023-03-21T04:46:24.130Z,96.64
2023-03-21T04:48:51.285Z,96.28
2023-03-21T04:51:17.765Z,96.79
2023-03-21T04:53:46.222Z,96.35
2023-03-21T04:56:13.371Z,96.10
2023-03-21T04:58:40.711Z,96.08
2023-03-21T05:01:08.278Z,96.33
2023-03-21T05:03:39.724Z,96.42
2023-03-21T05:06:08.572Z,96.53
2023-03-21T05:08:35.948Z,96.49
2023-03-21T05:11:03.375Z,96.46
2023-03-21T05:13:29.957Z,96.45
2023-03-21T05:15:56.658Z,96.49
2023-03-21T05:18:24.930Z,96.29
2023-03-21T05:21:10.791Z,95.72
2023-03-21T05:23:39.052Z,96.33
2023-03-21T05:26:07.941Z,95.88
2023-03-21T05:28:41.312Z,95.81
2023-03-21T05:31:08.900Z,95.83
2023-03-21T05:33:35.649Z,96.23
2023-03-21T05:36:02.390Z,96.56
2023-03-21T05:38:31.601Z,95.90
2023-03-21T05:40:58.819Z,96.17
2023-03-21T05:43:25.526Z,95.85
2023-03-21T05:45:52.604Z,96.19
2023-03-21T05:48:19.383Z,96.22
2023-03-21T05:51:01.407Z,96.35
2023-03-21T05:53:28.026Z,95.67
2023-03-21T05:55:54.568Z,95.58
2023-03-21T05:58:43.718Z,96.09
2023-03-21T06:01:10.708Z,95.60
2023-03-21T06:03:40.668Z,95.73
2023-03-21T06:06:14.845Z,95.68
2023-03-21T06:08:55.631Z,96.10
2023-03-21T06:11:27.116Z,95.75
2023-03-21T06:14:10.357Z,95.35
2023-03-21T06:16:38.778Z,95.83
2023-03-21T06:19:05.484Z,95.33
2023-03-21T06:21:40.421Z,95.84
2023-03-21T06:24:13.436Z,95.79
2023-03-21T06:26:45.214Z,95.98
2023-03-21T06:29:12.344Z,95.63
2023-03-21T06:31:42.110Z,95.25
2023-03-21T06:34:10.662Z,95.05
2023-03-21T06:36:38.013Z,95.90
2023-03-21T06:39:07.177Z,95.41
2023-03-21T06:41:38.262Z,95.64
2023-03-21T06:44:07.861Z,95.50
2023-03-21T06:46:43.542Z,94.95
2023-03-21T06:49:10.912Z,95.30
2023-03-21T06:51:37.499Z,95.81
2023-03-21T06:54:17.906Z,95.41
2023-03-21T06:57:10.424Z,95.53
2023-03-21T06:59:38.508Z,95.14
2023-03-21T07:02:13.054Z,95.17
2023-03-21T07:04:49.947Z,95.45
2023-03-21T07:07:29.017Z,95.50
2023-03-21T07:10:27.660Z,95.61
2023-03-21T07:13:01.439Z,95.48
2023-03-21T07:15:54.710Z,95.04
2023-03-21T07:18:28.031Z,95.30
2023-03-21T07:23:47.749Z,94.67
2023-03-21T07:26:27.431Z,94.76
2023-03-21T07:29:00.166Z,94.65
2023-03-21T07:31:27.297Z,94.51
2023-03-21T07:33:53.938Z,94.54
2023-03-21T07:36:21.547Z,94.22
2023-03-21T07:39:35.349Z,94.21
2023-03-21T07:41:51.882Z,94.75
2023-03-21T07:44:30.299Z,94.90
2023-03-21T07:47:05.514Z,94.85
2023-03-21T07:49:33.052Z,94.60
2023-03-21T07:51:59.927Z,94.79
2023-03-21T07:54:28.466Z,94.80
2023-03-21T07:56:56.780Z,94.95
2023-03-21T07:59:23.658Z,94.42
2023-03-21T08:01:51.833Z,94.63
2023-03-21T08:04:18.332Z,94.33
2023-03-21T08:06:44.842Z,94.46
2023-03-21T08:09:12.874Z,93.99
2023-03-21T08:11:40.236Z,94.48
2023-03-21T08:14:07.027Z,94.21
2023-03-21T08:16:33.662Z,94.31
2023-03-21T08:19:00.276Z,94.08
2023-03-21T08:21:28.109Z,94.59
2023-03-21T08:23:54.728Z,94.25
2023-03-21T08:26:21.328Z,93.96
2023-03-21T08:28:47.851Z,93.87
2023-03-21T08:31:15.045Z,93.71
2023-03-21T08:33:50.873Z,94.42
2023-03-21T08:36:17.458Z,93.88
2023-03-21T08:38:48.624Z,93.71
2023-03-21T08:41:15.676Z,93.93
2023-03-21T08:43:42.246Z,93.70
2023-03-21T08:46:08.815Z,93.00
2023-03-21T08:48:38.695Z,93.23
2023-03-21T08:51:06.390Z,93.06
2023-03-21T08:53:33.731Z,92.95
2023-03-21T08:56:00.381Z,93.14
2023-03-21T08:58:27.056Z,93.06
2023-03-21T09:00:53.694Z,93.16
2023-03-21T09:03:20.338Z,93.42
2023-03-21T09:05:49.611Z,92.06
2023-03-21T09:08:16.220Z,92.13
2023-03-21T09:10:42.715Z,92.00
2023-03-21T09:13:09.221Z,91.84
2023-03-21T09:15:36.331Z,91.46
2023-03-21T09:18:13.578Z,91.41
2023-03-21T09:20:40.477Z,91.34
2023-03-21T09:23:10.152Z,91.84
2023-03-21T09:25:38.587Z,91.14
2023-03-21T09:28:05.526Z,90.82
2023-03-21T09:30:34.145Z,90.90
2023-03-21T09:33:01.945Z,90.11
2023-03-21T09:35:28.940Z,90.80
2023-03-21T09:37:59.181Z,90.74
2023-03-21T09:40:51.106Z,90.17
2023-03-21T09:43:47.317Z,90.81
2023-03-21T09:46:38.475Z,90.56
2023-03-21T09:49:09.938Z,90.57
2023-03-21T09:51:43.362Z,90.36
2023-03-21T09:54:33.334Z,90.14
2023-03-21T09:57:03.810Z,90.44
2023-03-21T09:59:40.411Z,89.45
2023-03-21T10:02:38.994Z,89.79
2023-03-21T10:05:28.040Z,89.33
2023-03-21T10:08:04.796Z,89.51
2023-03-21T10:10:38.731Z,88.71
2023-03-21T10:13:14.822Z,88.24
2023-03-21T10:15:41.382Z,88.40
2023-03-21T10:18:14.043Z,88.59
2023-03-21T10:20:42.680Z,87.54
2023-03-21T10:23:15.927Z,87.23
2023-03-21T10:25:45.965Z,87.59
2023-03-21T10:28:20.824Z,87.63
2023-03-21T10:30:51.835Z,86.65
2023-03-21T10:33:22.670Z,86.79
2023-03-21T10:35:53.378Z,87.38
2023-03-21T10:38:23.279Z,85.30
2023-03-21T10:40:50.274Z,84.91
2023-03-21T10:43:25.771Z,85.82
2023-03-21T10:45:54.212Z,85.57
2023-03-21T10:48:21.702Z,85.20
2023-03-21T10:50:51.511Z,84.21
2023-03-21T10:53:22.510Z,84.98
2023-03-21T10:55:53.989Z,82.30
2023-03-21T10:58:28.752Z,82.83
2023-03-21T11:00:58.587Z,82.35
2023-03-21T11:03:31.220Z,81.60
2023-03-21T11:06:14.372Z,82.81
2023-03-21T11:09:16.199Z,81.95
2023-03-21T11:12:03.161Z,82.49
2023-03-21T11:14:48.532Z,82.74
2023-03-21T11:17:41.656Z,82.19
2023-03-21T11:20:12.826Z,80.95
2023-03-21T11:22:44.773Z,81.08
2023-03-21T11:25:39.176Z,80.35
2023-03-21T11:28:13.335Z,80.11
2023-03-21T11:30:51.994Z,77.71
2023-03-21T11:33:21.606Z,77.83
2023-03-21T11:36:00.423Z,77.68
2023-03-21T11:38:32.195Z,77.19
2023-03-21T11:41:02.732Z,77.58
2023-03-21T11:43:36.743Z,78.60
2023-03-21T11:46:15.316Z,78.61
2023-03-21T11:48:46.882Z,78.04
2023-03-21T11:51:51.093Z,78.79
2023-03-21T11:54:27.804Z,77.29
2023-03-21T11:57:00.168Z,76.40
2023-03-21T11:59:36.748Z,76.69
2023-03-21T12:02:22.141Z,77.91
2023-03-21T12:05:04.552Z,78.14
2023-03-21T12:07:39.982Z,77.74
2023-03-21T12:10:28.657Z,78.20
2023-03-21T12:13:08.288Z,78.10
2023-03-21T12:15:46.824Z,78.04
2023-03-21T12:18:35.613Z,78.63
2023-03-21T12:21:06.335Z,78.54
2023-03-21T12:23:42.975Z,78.37
2023-03-21T12:26:17.794Z,78.69
2023-03-21T12:29:19.299Z,78.70
2023-03-21T12:32:15.366Z,78.21
2023-03-21T12:35:07.405Z,78.75
2023-03-21T12:37:46.717Z,79.08
2023-03-21T12:40:44.990Z,78.31
2023-03-21T12:43:29.565Z,78.01
2023-03-21T12:46:03.066Z,77.74
2023-03-21T12:48:42.355Z,76.46
2023-03-21T12:51:14.268Z,76.01
2023-03-21T12:53:43.393Z,76.00
2023-03-21T12:56:16.909Z,74.99
2023-03-21T12:58:49.733Z,75.02
2023-03-21T13:01:19.766Z,74.51
2023-03-21T13:03:56.027Z,75.04
2023-03-21T13:06:25.464Z,71.93
2023-03-21T13:09:10.341Z,71.96
2023-03-21T13:11:37.870Z,69.76
2023-03-21T13:14:09.046Z,71.05
2023-03-21T13:16:35.710Z,71.08
2023-03-21T13:19:40.578Z,68.16
2023-03-21T13:22:27.903Z,67.81
2023-03-21T13:25:05.333Z,67.69
2023-03-21T13:27:42.076Z,65.28
2023-03-21T13:30:14.646Z,66.70
2023-03-21T13:32:44.100Z,67.27
2023-03-21T13:35:29.039Z,66.58
2023-03-21T13:38:04.773Z,66.06
2023-03-21T13:40:48.530Z,67.36
2023-03-21T13:43:55.680Z,66.05
2023-03-21T13:46:25.037Z,66.45
2023-03-21T13:49:09.751Z,65.69
2023-03-21T13:51:36.165Z,66.28
2023-03-21T13:54:07.449Z,66.30
2023-03-21T13:56:46.433Z,64.59
2023-03-21T13:59:18.209Z,64.78
2023-03-21T14:02:15.432Z,65.11
2023-03-21T14:05:03.996Z,65.76
2023-03-21T14:07:42.706Z,66.99
2023-03-21T14:10:20.906Z,66.26
2023-03-21T14:12:49.599Z,67.24
2023-03-21T14:15:31.263Z,66.89
2023-03-21T14:18:16.015Z,66.52
2023-03-21T14:20:56.481Z,66.50
2023-03-21T14:23:23.964Z,66.74
2023-03-21T14:25:51.597Z,66.38
2023-03-21T14:28:30.198Z,67.23
2023-03-21T14:31:01.103Z,67.89
2023-03-21T14:33:41.450Z,66.71
2023-03-21T14:36:15.481Z,67.38
2023-03-21T14:38:42.318Z,67.36
2023-03-21T14:41:27.049Z,67.43
2023-03-21T14:44:14.729Z,67.67
2023-03-21T14:46:41.988Z,67.95
2023-03-21T14:49:30.272Z,68.36
2023-03-21T14:52:00.954Z,68.20
2023-03-21T14:54:29.938Z,68.53
2023-03-21T14:57:07.951Z,67.58
2023-03-21T14:59:38.272Z,67.98
2023-03-21T15:02:38.681Z,68.87
2023-03-21T15:05:32.540Z,68.96
2023-03-21T15:08:15.355Z,69.18
2023-03-21T15:10:42.989Z,69.23
2023-03-21T15:13:25.941Z,68.72
2023-03-21T15:15:56.223Z,68.74
2023-03-21T15:18:32.027Z,69.22
2023-03-21T15:21:06.960Z,69.39
2023-03-21T15:23:46.509Z,70.05
2023-03-21T15:26:16.746Z,69.48
2023-03-21T15:28:46.737Z,70.40
2023-03-21T15:31:25.910Z,70.43
2023-03-21T15:33:54.405Z,71.10
2023-03-21T15:36:26.610Z,71.42
2023-03-21T15:39:00.251Z,71.30
2023-03-21T15:41:30.251Z,71.39
2023-03-21T15:43:59.371Z,72.55
2023-03-21T15:46:44.542Z,71.80
2023-03-21T15:49:22.676Z,71.69
2023-03-21T15:52:06.830Z,71.17
2023-03-21T15:54:50.598Z,72.04
2023-03-21T15:57:23.415Z,71.18
2023-03-21T15:59:54.530Z,71.44
2023-03-21T16:02:24.154Z,72.24
2023-03-21T16:05:00.294Z,72.40
2023-03-21T16:07:27.460Z,72.59
2023-03-21T16:10:00.916Z,73.27
2023-03-21T16:12:27.789Z,73.83
2023-03-21T16:14:55.780Z,73.82
2023-03-21T16:17:28.692Z,73.64
2023-03-21T16:19:55.233Z,73.95
2023-03-21T16:22:22.265Z,74.48
2023-03-21T16:24:50.450Z,75.04
2023-03-21T16:27:19.557Z,75.68
2023-03-21T16:29:46.052Z,78.08
2023-03-21T16:32:15.966Z,79.65
2023-03-21T16:34:44.153Z,80.78
2023-03-21T16:37:17.369Z,81.43
2023-03-21T16:39:44.183Z,82.74
2023-03-21T16:42:12.646Z,83.57
2023-03-21T16:44:40.075Z,83.39
2023-03-21T16:47:16.877Z,82.27
2023-03-21T16:49:44.319Z,82.83
2023-03-21T16:52:11.996Z,83.65
2023-03-21T16:54:39.985Z,83.36
2023-03-21T16:57:09.007Z,83.82
2023-03-21T16:59:36.133Z,83.65
2023-03-21T17:02:02.740Z,83.68
2023-03-21T17:04:29.200Z,83.58
2023-03-21T17:06:55.946Z,83.59
2023-03-21T17:09:26.276Z,83.43
2023-03-21T17:11:52.939Z,83.84
2023-03-21T17:14:21.457Z,83.09
2023-03-21T17:16:49.352Z,83.70
2023-03-21T17:19:20.413Z,83.53
2023-03-21T17:21:47.072Z,83.74
2023-03-21T17:24:13.896Z,83.74
2023-03-21T17:26:40.503Z,83.57
2023-03-21T17:29:07.834Z,83.90
2023-03-21T17:31:37.993Z,83.62
2023-03-21T17:34:05.077Z,83.52
2023-03-21T17:36:39.163Z,83.95
2023-03-21T17:39:09.497Z,84.09
2023-03-21T17:41:36.267Z,84.32
2023-03-21T17:44:04.104Z,84.00
2023-03-21T17:46:37.096Z,84.35
2023-03-21T17:49:04.865Z,84.31
2023-03-21T17:51:33.045Z,84.48
2023-03-21T17:54:00.351Z,84.18
2023-03-21T17:56:31.031Z,84.36
2023-03-21T17:59:07.369Z,84.69
2023-03-21T18:01:35.439Z,85.00
2023-03-21T18:04:04.738Z,84.89
2023-03-21T18:06:33.991Z,84.61
2023-03-21T18:09:01.209Z,84.80
2023-03-21T18:11:27.843Z,84.60
2023-03-21T18:14:06.816Z,84.73
2023-03-21T18:16:41.518Z,85.06
2023-03-21T18:19:09.833Z,85.35
2023-03-21T18:21:37.911Z,84.94
2023-03-21T18:24:04.954Z,85.58
2023-03-21T18:26:31.451Z,85.27
2023-03-21T18:29:47.301Z,85.78
2023-03-21T18:31:54.364Z,85.80
2023-03-21T18:34:29.944Z,85.91
2023-03-21T18:36:56.451Z,85.78
2023-03-21T18:39:23.254Z,85.56
2023-03-21T18:41:57.123Z,86.01
2023-03-21T18:44:25.661Z,86.03
2023-03-21T18:46:52.310Z,85.95
2023-03-21T18:52:09.619Z,86.29
2023-03-21T18:54:39.590Z,86.06
2023-03-21T19:00:00.212Z,86.11
2023-03-21T19:02:27.607Z,86.23
2023-03-21T19:04:54.274Z,86.48
2023-03-21T19:07:20.926Z,86.17
2023-03-21T19:10:13.892Z,86.53
2023-03-21T19:12:38.213Z,86.15
2023-03-21T19:15:08.378Z,86.31
2023-03-21T19:18:23.167Z,85.74
2023-03-21T19:20:21.837Z,86.52
2023-03-21T19:22:50.817Z,86.40
2023-03-21T19:25:17.411Z,86.46
2023-03-21T19:27:46.356Z,86.41
2023-03-21T19:30:15.649Z,86.93
2023-03-21T19:32:43.788Z,86.96
2023-03-21T19:35:11.176Z,87.61
2023-03-21T19:37:37.660Z,87.31
2023-03-21T19:40:10.076Z,87.22
2023-03-21T19:42:36.785Z,87.29
2023-03-21T19:45:08.476Z,87.37
2023-03-21T19:47:35.040Z,87.49
2023-03-21T19:52:47.985Z,87.83
2023-03-21T19:55:14.955Z,87.88
2023-03-21T19:57:44.589Z,87.74
2023-03-21T20:00:11.760Z,88.14
2023-03-21T20:02:39.905Z,88.12
2023-03-21T20:05:07.735Z,88.02
2023-03-21T20:07:34.684Z,88.08
2023-03-21T20:10:01.393Z,88.18
2023-03-21T20:12:28.034Z,87.98
2023-03-21T20:15:07.051Z,87.95
2023-03-21T20:17:45.380Z,87.96
2023-03-21T20:20:17.697Z,88.37
2023-03-21T20:23:08.215Z,88.20
2023-03-21T20:25:40.658Z,88.54
2023-03-21T20:28:16.171Z,88.60
2023-03-21T20:31:00.584Z,88.29
2023-03-21T20:33:29.217Z,88.79
2023-03-21T20:36:38.154Z,89.05
2023-03-21T20:38:52.339Z,88.91
2023-03-21T20:41:19.103Z,89.09
2023-03-21T20:46:33.217Z,89.21
2023-03-21T20:49:00.282Z,89.45
2023-03-21T20:54:14.270Z,89.39
2023-03-21T20:56:41.320Z,89.20
2023-03-21T20:59:18.200Z,89.06
2023-03-21T21:01:50.599Z,88.79
2023-03-21T21:04:19.978Z,88.55
2023-03-21T21:06:51.157Z,88.68
2023-03-21T21:09:17.763Z,88.30
2023-03-21T21:12:06.011Z,88.47
2023-03-21T21:14:39.124Z,88.29
2023-03-21T21:17:27.691Z,88.34
2023-03-21T21:19:57.564Z,88.48
2023-03-21T21:22:24.167Z,88.20
2023-03-21T21:24:52.981Z,88.38
2023-03-21T21:27:19.926Z,88.20
2023-03-21T21:29:49.825Z,88.05
2023-03-21T21:32:18.358Z,88.16
2023-03-21T21:34:47.521Z,88.48
2023-03-21T21:37:17.295Z,88.69
2023-03-21T21:39:50.394Z,88.87
2023-03-21T21:42:16.975Z,88.67
2023-03-21T21:44:45.005Z,89.02
2023-03-21T21:47:12.383Z,88.88
2023-03-21T21:49:39.270Z,88.86
2023-03-21T21:52:05.804Z,89.49
2023-03-21T21:54:34.175Z,89.31
2023-03-21T21:57:00.946Z,88.39
2023-03-21T21:59:27.682Z,88.64
2023-03-21T22:01:54.158Z,88.66
2023-03-21T22:04:27.438Z,87.83
2023-03-21T22:06:54.979Z,87.76
2023-03-21T22:09:21.796Z,87.64
2023-03-21T22:11:48.435Z,87.52
2023-03-21T22:14:15.070Z,86.96
2023-03-21T22:16:43.162Z,87.01
2023-03-21T22:19:10.111Z,86.28
2023-03-21T22:21:38.628Z,86.44
2023-03-21T22:24:05.990Z,85.52
2023-03-21T22:26:33.535Z,85.56
2023-03-21T22:29:03.727Z,85.74
2023-03-21T22:31:31.994Z,85.34
2023-03-21T22:33:58.600Z,85.75
2023-03-21T22:36:25.647Z,85.43
2023-03-21T22:38:52.187Z,85.10
2023-03-21T22:41:25.569Z,85.37
2023-03-21T22:43:52.066Z,85.22
2023-03-21T22:46:18.599Z,84.50
2023-03-21T22:48:45.505Z,85.08
2023-03-21T22:51:12.346Z,84.91
2023-03-21T22:53:41.361Z,84.94
2023-03-21T22:56:08.758Z,84.74
2023-03-21T22:58:35.442Z,84.81
2023-03-21T23:01:05.218Z,84.94
2023-03-21T23:03:31.819Z,85.15
2023-03-21T23:06:01.552Z,84.95
2023-03-21T23:08:28.548Z,84.91
2023-03-21T23:10:55.268Z,84.83
2023-03-21T23:13:23.795Z,84.78
2023-03-21T23:15:50.611Z,85.05
2023-03-21T23:18:17.302Z,85.08
2023-03-21T23:20:43.770Z,84.96
2023-03-21T23:23:10.290Z,84.98
2023-03-21T23:25:40.690Z,84.95
2023-03-21T23:28:10.438Z,84.67
2023-03-21T23:30:41.474Z,85.22
2023-03-21T23:33:11.273Z,84.76
2023-03-21T23:35:39.275Z,84.91
2023-03-21T23:38:06.034Z,85.07
2023-03-21T23:40:32.637Z,85.30
2023-03-21T23:42:59.675Z,84.77
2023-03-21T23:45:26.581Z,84.70
2023-03-21T23:47:53.167Z,85.02
2023-03-21T23:50:19.756Z,85.24
2023-03-21T23:52:46.338Z,84.69
2023-03-21T23:55:20.898Z,84.25
2023-03-21T23:57:48.290Z,84.45
